createdAt,value
2018-07-23T00:00:55.972Z,78.90
2018-07-23T00:03:24.182Z,78.00
2018-07-23T00:05:52.221Z,78.08
2018-07-23T00:08:20.242Z,76.98
2018-07-23T00:10:48.343Z,76.85
2018-07-23T00:13:16.385Z,77.51
2018-07-23T00:15:44.377Z,77.53
2018-07-23T00:18:12.470Z,78.94
2018-07-23T00:20:40.576Z,80.94
2018-07-23T00:23:08.840Z,82.76
2018-07-23T00:25:36.903Z,81.91
2018-07-23T00:28:04.920Z,82.45
2018-07-23T00:30:32.995Z,83.67
2018-07-23T00:33:01.099Z,85.18
2018-07-23T00:35:29.155Z,84.96
2018-07-23T00:37:57.154Z,85.17
2018-07-23T00:40:25.163Z,86.04
2018-07-23T00:42:53.269Z,87.16
2018-07-23T00:45:21.351Z,86.37
2018-07-23T00:47:49.450Z,84.67
2018-07-23T00:50:17.517Z,84.52
2018-07-23T00:52:45.438Z,84.79
2018-07-23T00:55:13.525Z,84.94
2018-07-23T00:57:41.624Z,85.11
2018-07-23T01:00:09.677Z,85.26
2018-07-23T01:02:37.691Z,85.96
2018-07-23T01:05:05.791Z,84.48
2018-07-23T01:07:33.889Z,83.24
2018-07-23T01:10:01.931Z,82.92
2018-07-23T01:12:34.029Z,80.96
2018-07-23T01:15:02.431Z,82.24
2018-07-23T01:17:30.465Z,80.25
2018-07-23T01:19:59.397Z,81.16
2018-07-23T01:22:28.118Z,81.48
2018-07-23T01:24:57.135Z,82.96
2018-07-23T01:27:25.320Z,79.91
2018-07-23T01:29:53.356Z,81.55
2018-07-23T01:32:21.492Z,81.42
2018-07-23T01:34:49.911Z,82.05
2018-07-23T01:37:18.459Z,82.00
2018-07-23T01:39:46.632Z,80.89
2018-07-23T01:42:14.688Z,81.01
2018-07-23T01:44:42.834Z,82.24
2018-07-23T01:47:11.166Z,82.29
2018-07-23T01:49:39.337Z,83.33
2018-07-23T01:52:07.353Z,83.45
2018-07-23T01:54:35.768Z,83.92
2018-07-23T01:57:03.910Z,84.16
2018-07-23T01:59:32.144Z,83.03
2018-07-23T02:02:00.112Z,82.00
2018-07-23T02:04:28.123Z,81.37
2018-07-23T02:06:56.080Z,81.96
2018-07-23T02:09:24.103Z,83.52
2018-07-23T02:11:52.149Z,81.78
2018-07-23T02:14:20.277Z,79.72
2018-07-23T02:16:48.424Z,80.30
2018-07-23T02:19:16.533Z,82.25
2018-07-23T02:21:44.553Z,83.23
2018-07-23T02:24:12.543Z,86.25
2018-07-23T02:26:40.610Z,88.00
2018-07-23T02:29:08.835Z,89.76
2018-07-23T02:31:36.965Z,90.64
2018-07-23T02:34:04.875Z,90.59
2018-07-23T02:36:32.925Z,91.46
2018-07-23T02:39:00.973Z,91.05
2018-07-23T02:41:29.048Z,90.36
2018-07-23T02:43:57.042Z,91.31
2018-07-23T02:46:25.212Z,91.21
2018-07-23T02:48:53.179Z,91.34
2018-07-23T02:51:21.340Z,89.05
2018-07-23T02:53:49.453Z,89.62
2018-07-23T02:56:17.375Z,90.37
2018-07-23T02:58:45.465Z,91.71
2018-07-23T03:01:13.475Z,90.58
2018-07-23T03:03:41.557Z,89.16
2018-07-23T03:06:09.613Z,90.29
2018-07-23T03:08:37.620Z,90.65
2018-07-23T03:11:05.676Z,90.50
2018-07-23T03:13:33.918Z,89.28
2018-07-23T03:16:01.927Z,86.05
2018-07-23T03:18:29.951Z,86.07
2018-07-23T03:20:58.008Z,86.25
2018-07-23T03:23:26.066Z,86.03
2018-07-23T03:25:54.211Z,85.92
2018-07-23T03:28:22.270Z,86.06
2018-07-23T03:30:50.234Z,86.81
2018-07-23T03:33:18.342Z,86.66
2018-07-23T03:35:46.374Z,86.80
2018-07-23T03:38:14.776Z,86.54
2018-07-23T03:40:42.798Z,86.35
2018-07-23T03:43:11.236Z,85.19
2018-07-23T03:45:39.222Z,84.60
2018-07-23T03:48:07.331Z,83.95
2018-07-23T03:50:35.614Z,83.39
2018-07-23T03:53:03.751Z,83.36
2018-07-23T03:55:31.734Z,82.20
2018-07-23T03:57:59.835Z,82.91
2018-07-23T04:00:27.791Z,82.31
2018-07-23T04:02:55.818Z,82.19
2018-07-23T04:05:23.853Z,81.25
2018-07-23T04:07:51.930Z,80.47
2018-07-23T04:10:19.886Z,80.89
2018-07-23T04:12:47.832Z,80.23
2018-07-23T04:15:15.883Z,80.66
2018-07-23T04:17:50.832Z,80.03
2018-07-23T04:20:18.904Z,79.01
2018-07-23T04:22:46.949Z,78.59
2018-07-23T04:25:15.020Z,78.85
2018-07-23T04:27:43.007Z,79.04
2018-07-23T04:30:11.112Z,79.22
2018-07-23T04:32:39.232Z,79.69
2018-07-23T04:35:07.325Z,78.53
2018-07-23T04:37:35.383Z,78.42
2018-07-23T04:40:03.617Z,77.65
2018-07-23T04:42:32.151Z,76.65
2018-07-23T04:45:00.198Z,74.20
2018-07-23T04:47:28.263Z,72.11
2018-07-23T04:49:56.227Z,71.76
2018-07-23T04:52:24.330Z,73.06
2018-07-23T04:54:52.415Z,74.05
2018-07-23T04:57:20.547Z,73.85
2018-07-23T04:59:48.569Z,72.38
2018-07-23T05:02:16.612Z,72.17
2018-07-23T05:04:44.640Z,73.73
2018-07-23T05:07:12.639Z,74.66
2018-07-23T05:09:40.591Z,72.25
2018-07-23T05:12:08.569Z,71.91
2018-07-23T05:14:36.560Z,73.23
2018-07-23T05:17:04.672Z,73.64
2018-07-23T05:19:32.720Z,64.32
2018-07-23T05:22:00.791Z,63.24
2018-07-23T05:24:28.866Z,66.33
2018-07-23T05:26:56.973Z,66.99
2018-07-23T05:29:25.812Z,67.80
2018-07-23T05:31:53.917Z,65.95
2018-07-23T05:34:21.995Z,67.79
2018-07-23T05:36:50.248Z,67.66
2018-07-23T05:39:18.459Z,64.84
2018-07-23T05:41:46.487Z,62.76
2018-07-23T05:44:14.571Z,63.20
2018-07-23T05:46:42.739Z,63.61
2018-07-23T05:49:10.777Z,60.76
2018-07-23T05:51:38.759Z,59.61
2018-07-23T05:54:07.312Z,59.24
2018-07-23T05:56:35.388Z,57.66
2018-07-23T05:59:03.568Z,57.87
2018-07-23T06:01:31.662Z,57.99
2018-07-23T06:04:00.187Z,57.44
2018-07-23T06:06:28.297Z,57.47
2018-07-23T06:08:56.366Z,57.93
2018-07-23T06:11:24.491Z,57.60
2018-07-23T06:13:52.623Z,57.30
2018-07-23T06:16:20.970Z,57.65
2018-07-23T06:18:49.098Z,57.33
2018-07-23T06:21:17.245Z,57.91
2018-07-23T06:23:45.288Z,57.41
2018-07-23T06:26:13.344Z,56.76
2018-07-23T06:28:41.439Z,56.03
2018-07-23T06:31:09.579Z,57.30
2018-07-23T06:33:37.851Z,55.38
2018-07-23T06:36:05.925Z,54.79
2018-07-23T06:38:34.145Z,56.32
2018-07-23T06:41:02.231Z,56.63
2018-07-23T06:43:30.284Z,57.39
2018-07-23T06:45:58.512Z,57.38
2018-07-23T06:48:26.744Z,56.50
2018-07-23T06:50:55.076Z,56.26
2018-07-23T06:53:23.116Z,56.62
2018-07-23T06:55:51.271Z,58.33
2018-07-23T06:58:19.402Z,57.70
2018-07-23T07:00:47.539Z,58.21
2018-07-23T07:03:15.673Z,57.85
2018-07-23T07:05:43.742Z,56.54
2018-07-23T07:08:11.902Z,57.33
2018-07-23T07:10:39.974Z,58.47
2018-07-23T07:13:08.044Z,59.87
2018-07-23T07:15:36.165Z,59.98
2018-07-23T07:18:04.205Z,58.58
2018-07-23T07:20:32.771Z,56.83
2018-07-23T07:23:01.115Z,53.87
2018-07-23T07:25:29.186Z,57.79
2018-07-23T07:27:57.420Z,57.39
2018-07-23T07:30:25.523Z,56.33
2018-07-23T07:32:53.623Z,56.37
2018-07-23T07:35:21.741Z,56.69
2018-07-23T07:37:49.843Z,57.30
2018-07-23T07:40:17.854Z,55.29
2018-07-23T07:42:46.007Z,55.38
2018-07-23T07:45:13.996Z,55.92
2018-07-23T07:47:42.136Z,55.69
2018-07-23T07:50:10.229Z,54.65
2018-07-23T07:52:38.290Z,54.29
2018-07-23T07:55:06.474Z,54.80
2018-07-23T07:57:34.557Z,55.60
2018-07-23T08:00:02.660Z,54.44
2018-07-23T08:02:30.635Z,51.74
2018-07-23T08:04:58.595Z,52.17
2018-07-23T08:07:26.680Z,52.08
2018-07-23T08:09:54.837Z,51.86
2018-07-23T08:12:23.041Z,52.20
2018-07-23T08:14:51.039Z,51.05
2018-07-23T08:17:19.044Z,51.91
2018-07-23T08:19:47.524Z,50.66
2018-07-23T08:22:15.580Z,50.20
2018-07-23T08:24:43.864Z,50.55
2018-07-23T08:27:12.072Z,50.99
2018-07-23T08:29:40.246Z,50.25
2018-07-23T08:32:08.310Z,48.34
2018-07-23T08:34:36.373Z,48.77
2018-07-23T08:37:04.631Z,48.08
2018-07-23T08:39:32.653Z,48.72
2018-07-23T08:42:00.858Z,49.14
2018-07-23T08:44:28.852Z,48.20
2018-07-23T08:46:57.058Z,48.81
2018-07-23T08:49:25.299Z,47.21
2018-07-23T08:51:53.683Z,47.74
2018-07-23T08:54:21.822Z,48.16
2018-07-23T08:56:50.142Z,48.01
2018-07-23T08:59:19.526Z,47.63
2018-07-23T09:01:47.568Z,48.17
2018-07-23T09:04:15.648Z,46.72
2018-07-23T09:06:43.921Z,45.68
2018-07-23T09:09:11.911Z,47.03
2018-07-23T09:11:40.126Z,45.02
2018-07-23T09:14:08.152Z,46.02
2018-07-23T09:16:36.255Z,45.75
2018-07-23T09:19:04.946Z,45.10
2018-07-23T09:21:33.062Z,44.63
2018-07-23T09:24:01.195Z,44.88
2018-07-23T09:26:29.268Z,45.14
2018-07-23T09:28:57.470Z,42.17
2018-07-23T09:31:25.683Z,44.58
2018-07-23T09:33:53.711Z,45.18
2018-07-23T09:36:21.811Z,43.18
2018-07-23T09:38:49.958Z,42.58
2018-07-23T09:41:18.225Z,43.17
2018-07-23T09:43:46.293Z,43.05
2018-07-23T09:46:14.463Z,41.92
2018-07-23T09:48:42.441Z,41.21
2018-07-23T09:51:10.505Z,43.15
2018-07-23T09:53:38.505Z,41.52
2018-07-23T09:56:06.860Z,43.43
2018-07-23T09:58:35.289Z,43.21
2018-07-23T10:01:08.727Z,43.78
2018-07-23T10:03:37.034Z,45.32
2018-07-23T10:06:05.182Z,43.42
2018-07-23T10:08:34.423Z,43.47
2018-07-23T10:11:02.560Z,44.26
2018-07-23T10:13:30.622Z,45.01
2018-07-23T10:15:58.846Z,43.73
2018-07-23T10:18:26.888Z,43.91
2018-07-23T10:20:55.201Z,42.97
2018-07-23T10:23:23.357Z,42.36
2018-07-23T10:25:51.394Z,39.50
2018-07-23T10:28:19.432Z,40.96
2018-07-23T10:30:47.535Z,43.18
2018-07-23T10:33:15.491Z,42.88
2018-07-23T10:35:43.544Z,43.21
2018-07-23T10:38:11.688Z,41.61
2018-07-23T10:40:39.868Z,39.78
2018-07-23T10:43:19.863Z,38.32
2018-07-23T10:45:47.981Z,40.14
2018-07-23T10:48:15.902Z,39.96
2018-07-23T10:50:43.909Z,38.20
2018-07-23T10:53:12.013Z,38.68
2018-07-23T10:55:40.092Z,38.63
2018-07-23T10:58:08.161Z,38.13
2018-07-23T11:00:36.257Z,37.23
2018-07-23T11:03:04.258Z,37.82
2018-07-23T11:05:32.601Z,42.35
2018-07-23T11:08:00.615Z,44.98
2018-07-23T11:10:28.557Z,43.13
2018-07-23T11:12:56.582Z,43.79
2018-07-23T11:15:25.657Z,43.83
2018-07-23T11:17:54.253Z,43.68
2018-07-23T11:20:22.238Z,41.55
2018-07-23T11:22:50.297Z,41.24
2018-07-23T11:25:39.178Z,42.51
2018-07-23T11:27:46.751Z,42.25
2018-07-23T11:30:14.942Z,41.60
2018-07-23T11:32:43.062Z,42.16
2018-07-23T11:35:11.117Z,41.10
2018-07-23T11:37:39.248Z,39.97
2018-07-23T11:40:07.343Z,38.97
2018-07-23T11:42:35.859Z,40.81
2018-07-23T11:45:04.707Z,41.15
2018-07-23T11:47:32.656Z,40.80
2018-07-23T11:58:32.185Z,47.68
2018-07-23T12:01:00.531Z,47.97
2018-07-23T12:03:28.486Z,48.49
2018-07-23T12:05:56.385Z,49.25
2018-07-23T12:08:24.401Z,50.82
2018-07-23T12:10:52.646Z,50.53
2018-07-23T12:13:20.649Z,51.20
2018-07-23T12:15:48.697Z,51.85
2018-07-23T12:18:16.816Z,51.27
2018-07-23T12:20:44.830Z,52.42
2018-07-23T12:23:12.849Z,51.88
2018-07-23T12:25:40.907Z,52.31
2018-07-23T12:28:09.083Z,51.85
2018-07-23T12:30:37.231Z,50.40
2018-07-23T12:33:05.412Z,49.56
2018-07-23T12:35:33.582Z,48.43
2018-07-23T12:38:01.595Z,48.29
2018-07-23T12:40:29.630Z,48.14
2018-07-23T12:42:57.716Z,46.92
2018-07-23T12:45:25.752Z,46.82
2018-07-23T12:47:53.880Z,47.65
2018-07-23T12:50:21.843Z,46.42
2018-07-23T12:52:50.072Z,46.91
2018-07-23T12:55:18.175Z,48.52
2018-07-23T12:57:46.275Z,47.37
2018-07-23T13:00:14.286Z,47.17
2018-07-23T13:02:42.322Z,45.97
2018-07-23T13:05:10.117Z,45.28
2018-07-23T13:07:38.147Z,44.16
2018-07-23T13:10:06.173Z,44.52
2018-07-23T13:12:34.245Z,44.17
2018-07-23T13:15:02.337Z,45.34
2018-07-23T13:17:30.287Z,45.63
2018-07-23T13:19:58.947Z,46.31
2018-07-23T13:22:26.955Z,42.09
2018-07-23T13:24:55.374Z,39.45
2018-07-23T13:27:23.331Z,39.29
2018-07-23T13:29:51.426Z,38.70
2018-07-23T13:32:19.481Z,39.76
2018-07-23T13:34:47.492Z,42.54
2018-07-23T13:37:15.625Z,44.13
2018-07-23T13:39:43.636Z,44.50
2018-07-23T13:42:11.775Z,43.47
2018-07-23T13:44:39.987Z,42.60
2018-07-23T13:47:07.976Z,42.21
2018-07-23T13:49:36.027Z,42.48
2018-07-23T13:52:05.953Z,41.75
2018-07-23T13:54:33.967Z,42.03
2018-07-23T13:57:03.091Z,42.02
2018-07-23T13:59:31.181Z,41.75
2018-07-23T14:01:59.194Z,41.32
2018-07-23T14:04:27.313Z,41.23
2018-07-23T14:06:55.460Z,42.27
2018-07-23T14:09:23.728Z,41.99
2018-07-23T14:11:51.822Z,42.65
2018-07-23T14:14:20.070Z,43.25
2018-07-23T14:16:48.092Z,43.59
2018-07-23T14:19:16.116Z,44.06
2018-07-23T14:21:44.316Z,44.70
2018-07-23T14:24:12.399Z,45.08
2018-07-23T14:26:40.428Z,47.00
2018-07-23T14:29:08.578Z,47.97
2018-07-23T14:31:36.694Z,48.12
2018-07-23T14:34:04.892Z,48.80
2018-07-23T14:36:33.004Z,47.55
2018-07-23T14:39:01.260Z,47.83
2018-07-23T14:41:29.267Z,47.93
2018-07-23T14:43:57.860Z,48.04
2018-07-23T14:46:25.961Z,47.78
2018-07-23T14:48:53.957Z,48.42
2018-07-23T14:51:21.997Z,49.50
2018-07-23T14:53:50.317Z,49.11
2018-07-23T14:56:18.483Z,50.66
2018-07-23T14:58:46.587Z,50.95
2018-07-23T15:01:14.740Z,50.81
2018-07-23T15:03:42.923Z,50.97
2018-07-23T15:06:11.197Z,50.04
2018-07-23T15:08:39.466Z,50.69
2018-07-23T15:11:07.543Z,50.74
2018-07-23T15:13:35.643Z,51.62
2018-07-23T15:16:03.804Z,51.96
2018-07-23T15:18:31.892Z,51.41
2018-07-23T15:20:59.973Z,51.63
2018-07-23T15:23:29.142Z,52.14
2018-07-23T15:25:57.315Z,52.97
2018-07-23T15:28:25.435Z,53.23
2018-07-23T15:30:53.414Z,53.88
2018-07-23T15:33:21.663Z,53.69
2018-07-23T15:35:49.788Z,54.67
2018-07-23T15:38:18.319Z,54.46
2018-07-23T15:40:46.526Z,54.58
2018-07-23T15:43:14.574Z,54.62
2018-07-23T15:45:42.980Z,53.77
2018-07-23T15:48:10.931Z,54.10
2018-07-23T15:50:38.927Z,53.77
2018-07-23T15:53:07.139Z,54.43
2018-07-23T15:55:35.355Z,53.93
2018-07-23T15:58:03.434Z,54.80
2018-07-23T16:00:31.530Z,55.12
2018-07-23T16:02:59.973Z,55.37
2018-07-23T16:05:28.208Z,55.63
2018-07-23T16:07:56.289Z,56.08
2018-07-23T16:10:24.518Z,56.21
2018-07-23T16:12:52.626Z,57.67
2018-07-23T16:15:20.660Z,57.96
2018-07-23T16:17:48.644Z,57.54
2018-07-23T16:20:17.897Z,58.07
2018-07-23T16:22:46.031Z,58.86
2018-07-23T16:25:14.107Z,59.22
2018-07-23T16:27:42.406Z,58.94
2018-07-23T16:30:10.754Z,59.65
2018-07-23T16:32:38.976Z,59.55
2018-07-23T16:35:09.261Z,58.63
2018-07-23T16:37:37.530Z,59.27
2018-07-23T16:40:06.305Z,58.85
2018-07-23T16:42:34.581Z,58.12
2018-07-23T16:45:02.805Z,58.72
2018-07-23T16:47:30.816Z,58.09
2018-07-23T16:49:59.190Z,59.30
2018-07-23T16:52:27.245Z,58.85
2018-07-23T16:54:56.426Z,59.27
2018-07-23T16:57:24.457Z,59.42
2018-07-23T16:59:52.516Z,59.08
2018-07-23T17:02:20.637Z,59.36
2018-07-23T17:04:48.764Z,58.50
2018-07-23T17:07:16.872Z,59.19
2018-07-23T17:09:44.922Z,57.59
2018-07-23T17:12:13.054Z,57.80
2018-07-23T17:14:41.154Z,58.26
2018-07-23T17:17:09.321Z,59.32
2018-07-23T17:19:37.563Z,59.36
2018-07-23T17:22:05.671Z,59.57
2018-07-23T17:24:35.246Z,59.78
2018-07-23T17:27:03.628Z,60.73
2018-07-23T17:29:31.766Z,60.61
2018-07-23T17:32:00.056Z,60.01
2018-07-23T17:34:28.464Z,60.05
2018-07-23T17:36:56.437Z,61.09
2018-07-23T17:39:24.615Z,60.76
2018-07-23T17:41:53.167Z,59.89
2018-07-23T17:44:21.490Z,60.87
2018-07-23T17:46:49.426Z,61.08
2018-07-23T17:49:17.589Z,61.11
2018-07-23T17:51:45.525Z,61.47
2018-07-23T17:54:13.553Z,61.44
2018-07-23T17:56:41.638Z,60.77
2018-07-23T17:59:09.815Z,61.06
2018-07-23T18:01:38.129Z,61.24
2018-07-23T18:04:06.348Z,60.52
2018-07-23T18:06:34.416Z,61.33
2018-07-23T18:09:02.589Z,61.25
2018-07-23T18:11:30.744Z,62.32
2018-07-23T18:13:58.760Z,64.16
2018-07-23T18:16:26.791Z,65.99
2018-07-23T18:18:54.827Z,66.97
2018-07-23T18:21:23.915Z,66.34
2018-07-23T18:23:52.073Z,67.81
2018-07-23T18:26:21.218Z,67.17
2018-07-23T18:28:49.291Z,68.14
2018-07-23T18:31:17.418Z,67.69
2018-07-23T18:33:45.658Z,67.57
2018-07-23T18:36:13.959Z,67.03
2018-07-23T18:38:42.091Z,67.08
2018-07-23T18:41:10.299Z,67.03
2018-07-23T18:43:38.443Z,66.19
2018-07-23T18:46:07.854Z,65.88
2018-07-23T18:49:45.737Z,66.36
2018-07-23T18:52:14.443Z,66.56
2018-07-23T18:54:44.038Z,66.31
2018-07-23T18:57:12.553Z,66.64
2018-07-23T18:59:40.599Z,66.87
2018-07-23T19:02:10.030Z,66.72
2018-07-23T19:04:38.146Z,66.62
2018-07-23T19:07:06.954Z,67.14
2018-07-23T19:09:35.055Z,66.14
2018-07-23T19:12:03.361Z,67.05
2018-07-23T19:14:31.589Z,69.18
2018-07-23T19:17:01.212Z,70.37
2018-07-23T19:19:29.611Z,71.54
2018-07-23T19:21:58.612Z,70.99
2018-07-23T19:24:26.836Z,71.22
2018-07-23T19:26:54.854Z,71.85
2018-07-23T19:29:22.985Z,72.43
2018-07-23T19:31:51.116Z,71.01
2018-07-23T19:34:19.199Z,71.68
2018-07-23T19:36:47.384Z,71.71
2018-07-23T19:39:17.590Z,69.96
2018-07-23T19:41:45.782Z,69.82
2018-07-23T19:44:13.988Z,69.05
2018-07-23T19:46:42.767Z,67.97
2018-07-23T19:49:10.787Z,68.44
2018-07-23T19:51:38.906Z,67.74
2018-07-23T19:54:07.837Z,68.26
2018-07-23T19:56:35.857Z,69.34
2018-07-23T19:59:04.036Z,69.49
2018-07-23T20:01:32.303Z,70.00
2018-07-23T20:04:00.557Z,70.14
2018-07-23T20:06:29.122Z,70.53
2018-07-23T20:08:58.298Z,69.94
2018-07-23T20:11:27.179Z,69.76
2018-07-23T20:13:55.315Z,69.79
2018-07-23T20:16:23.351Z,68.88
2018-07-23T20:18:51.511Z,68.78
2018-07-23T20:21:19.483Z,69.09
2018-07-23T20:23:47.538Z,69.24
2018-07-23T20:26:15.660Z,69.60
2018-07-23T20:28:43.684Z,69.95
2018-07-23T20:31:11.673Z,69.97
2018-07-23T20:33:39.685Z,69.73
2018-07-23T20:36:07.825Z,69.40
2018-07-23T20:38:36.386Z,69.46
2018-07-23T20:41:04.424Z,69.10
2018-07-23T20:43:32.874Z,69.28
2018-07-23T20:46:01.169Z,69.84
2018-07-23T20:48:29.245Z,69.88
2018-07-23T20:50:57.440Z,69.64
2018-07-23T20:53:25.637Z,69.61
2018-07-23T20:55:53.789Z,70.17
2018-07-23T20:58:22.102Z,70.50
2018-07-23T21:00:50.212Z,69.60
2018-07-23T21:03:18.421Z,69.76
2018-07-23T21:05:46.422Z,69.55
2018-07-23T21:08:14.357Z,70.04
2018-07-23T21:10:42.416Z,70.19
2018-07-23T21:13:10.653Z,70.87
2018-07-23T21:15:38.730Z,72.80
2018-07-23T21:18:07.294Z,75.49
2018-07-23T21:20:35.310Z,75.45
2018-07-23T21:23:03.304Z,77.14
2018-07-23T21:25:31.392Z,77.82
2018-07-23T21:27:59.324Z,77.84
2018-07-23T21:30:27.726Z,78.81
2018-07-23T21:32:55.817Z,79.27
2018-07-23T21:35:23.828Z,79.32
2018-07-23T21:37:51.829Z,79.43
2018-07-23T21:40:19.823Z,79.86
2018-07-23T21:42:47.819Z,80.12
2018-07-23T21:45:15.893Z,79.54
2018-07-23T21:47:43.866Z,79.98
2018-07-23T21:50:11.781Z,79.54
2018-07-23T21:52:39.865Z,79.29
2018-07-23T21:55:08.061Z,79.55
2018-07-23T21:57:36.015Z,78.89
2018-07-23T22:00:06.806Z,78.27
2018-07-23T22:02:34.806Z,77.92
2018-07-23T22:05:02.843Z,77.97
2018-07-23T22:07:30.862Z,78.04
2018-07-23T22:09:58.986Z,76.02
2018-07-23T22:12:26.947Z,76.42
2018-07-23T22:14:54.907Z,76.20
2018-07-23T22:17:23.147Z,76.72
2018-07-23T22:19:51.319Z,76.20
2018-07-23T22:22:19.319Z,75.63
2018-07-23T22:24:47.327Z,75.90
2018-07-23T22:27:15.514Z,76.79
2018-07-23T22:29:43.507Z,77.13
2018-07-23T22:32:11.662Z,76.67
2018-07-23T22:34:39.649Z,77.00
2018-07-23T22:37:07.686Z,77.00
2018-07-23T22:39:35.722Z,77.75
2018-07-23T22:42:03.909Z,75.54
2018-07-23T22:44:31.846Z,74.70
2018-07-23T22:46:59.789Z,74.45
2018-07-23T22:49:27.862Z,74.20
2018-07-23T22:51:55.943Z,73.81
2018-07-23T22:54:24.023Z,73.72
2018-07-23T22:56:51.947Z,73.97
2018-07-23T22:59:20.009Z,74.29
2018-07-23T23:01:47.961Z,73.75
2018-07-23T23:04:15.862Z,73.75
2018-07-23T23:06:43.869Z,74.46
2018-07-23T23:09:11.974Z,74.67
2018-07-23T23:11:39.938Z,75.39
2018-07-23T23:14:08.047Z,75.36
2018-07-23T23:16:36.192Z,76.57
2018-07-23T23:19:04.375Z,76.32
2018-07-23T23:21:32.453Z,76.71
2018-07-23T23:24:00.391Z,77.64
2018-07-23T23:26:28.391Z,79.23
2018-07-23T23:28:56.505Z,81.06
2018-07-23T23:31:24.492Z,81.42
2018-07-23T23:33:52.663Z,82.15
2018-07-23T23:36:20.705Z,82.06
2018-07-23T23:38:48.669Z,79.77
2018-07-23T23:41:16.734Z,82.21
2018-07-23T23:43:44.732Z,82.39
2018-07-23T23:46:12.751Z,83.01
2018-07-23T23:48:40.754Z,83.67
2018-07-23T23:51:08.919Z,83.87
2018-07-23T23:53:36.945Z,83.68
2018-07-23T23:56:05.140Z,83.58
2018-07-23T23:58:33.233Z,83.39
